Time;durP1;ratioP1;P1;durP2;ratioP2;P2;SDS_P1;SDS_P2;PMS_P1;PMS_P2;Temp;Humidity;BMP_temperature;BMP_pressure;BME280_temperature;BME280_humidity;BME280_pressure;Samples;Min_cycle;Max_cycle;Signal;HPM_P1;HPM_P2
2021/10/16 00:01:01;;;;;;;6.85;5.43;;;11.60;77.70;;;;;;5074832;28;20243;-63
2021/10/16 00:03:35;;;;;;;6.10;4.60;;;11.60;78.30;;;;;;5075205;28;20251;-63
2021/10/16 00:06:03;;;;;;;8.45;5.00;;;11.50;77.90;;;;;;5075266;28;20236;-63
2021/10/16 00:08:38;;;;;;;5.32;3.72;;;11.60;77.90;;;;;;5074647;28;20225;-63
2021/10/16 00:11:06;;;;;;;7.00;4.30;;;11.50;77.50;;;;;;5074743;28;20221;-63
2021/10/16 00:13:41;;;;;;;5.53;3.83;;;11.50;77.70;;;;;;5074878;28;20625;-64
2021/10/16 00:16:10;;;;;;;7.95;4.50;;;11.50;78.30;;;;;;5074822;28;20221;-63
2021/10/16 00:18:38;;;;;;;4.72;3.85;;;11.50;78.20;;;;;;5075105;28;20196;-63
2021/10/16 00:21:06;;;;;;;5.88;4.43;;;11.50;78.30;;;;;;5074877;28;20280;-63
2021/10/16 00:23:33;;;;;;;7.65;4.30;;;11.50;78.60;;;;;;5074585;28;20244;-63
2021/10/16 00:26:02;;;;;;;5.15;4.25;;;11.50;78.60;;;;;;5074891;28;20328;-64
2021/10/16 00:28:29;;;;;;;7.03;5.28;;;11.40;78.70;;;;;;5074706;28;20277;-63
2021/10/16 00:30:56;;;;;;;5.82;4.90;;;11.50;79.00;;;;;;5074463;28;20281;-63
2021/10/16 00:33:28;;;;;;;6.10;4.10;;;11.40;79.30;;;;;;5074329;28;20284;-63
2021/10/16 00:35:55;;;;;;;7.07;5.07;;;11.40;80.00;;;;;;5074642;28;20236;-63
2021/10/16 00:38:24;;;;;;;6.22;4.20;;;11.40;80.00;;;;;;5074314;28;20239;-63
2021/10/16 00:40:53;;;;;;;4.80;4.25;;;11.40;79.90;;;;;;5074554;28;20272;-63
2021/10/16 00:43:21;;;;;;;5.63;4.07;;;11.40;79.40;;;;;;5074444;28;20281;-63
2021/10/16 00:45:53;;;;;;;4.50;4.03;;;11.30;80.00;;;;;;5074478;28;20277;-63
2021/10/16 00:48:24;;;;;;;6.72;4.78;;;11.30;80.40;;;;;;5074339;28;20550;-63
2021/10/16 00:50:51;;;;;;;7.22;4.65;;;11.40;80.60;;;;;;5074078;28;20304;-63
2021/10/16 00:53:18;;;;;;;5.07;4.18;;;11.40;80.60;;;;;;5074342;28;20687;-63
2021/10/16 00:55:49;;;;;;;5.15;3.97;;;11.40;80.30;;;;;;5074063;28;20707;-63
2021/10/16 00:58:23;;;;;;;4.70;3.65;;;11.40;80.40;;;;;;5074154;28;20274;-67
2021/10/16 01:00:50;;;;;;;6.32;4.28;;;11.50;80.60;;;;;;5073760;28;20727;-63
2021/10/16 01:03:17;;;;;;;6.10;4.95;;;11.50;80.80;;;;;;5073817;28;20356;-63
2021/10/16 01:05:44;;;;;;;7.18;5.50;;;11.50;80.60;;;;;;5074004;28;20280;-63
2021/10/16 01:08:15;;;;;;;7.63;4.75;;;11.50;80.30;;;;;;5073269;28;20277;-63
2021/10/16 01:10:44;;;;;;;6.55;4.75;;;11.50;80.60;;;;;;5073826;28;20708;-63
2021/10/16 01:13:13;;;;;;;6.45;4.50;;;11.50;80.70;;;;;;5073835;28;20728;-63
2021/10/16 01:15:40;;;;;;;5.82;4.78;;;11.50;80.60;;;;;;5073626;28;20277;-64
2021/10/16 01:18:10;;;;;;;5.93;5.13;;;11.50;80.90;;;;;;5073521;28;20236;-63
2021/10/16 01:20:45;;;;;;;9.40;5.47;;;11.50;80.80;;;;;;5073635;28;20301;-63
2021/10/16 01:23:17;;;;;;;6.25;5.00;;;11.40;80.30;;;;;;5073444;28;20276;-63
2021/10/16 01:25:45;;;;;;;6.70;4.97;;;11.40;80.30;;;;;;5073533;28;20277;-63
2021/10/16 01:28:16;;;;;;;8.00;5.60;;;11.40;80.20;;;;;;5073167;28;20683;-63
2021/10/16 01:30:43;;;;;;;7.15;5.18;;;11.40;80.10;;;;;;5073383;28;20672;-63
2021/10/16 01:33:10;;;;;;;7.57;5.88;;;11.40;80.50;;;;;;5073317;28;20221;-63
2021/10/16 01:35:38;;;;;;;5.28;4.72;;;11.40;80.20;;;;;;5073496;28;20193;-63
2021/10/16 01:38:07;;;;;;;6.85;6.03;;;11.30;79.90;;;;;;5073347;28;20272;-63
2021/10/16 01:40:35;;;;;;;7.72;5.60;;;11.20;79.60;;;;;;5073460;28;20281;-64
2021/10/16 01:43:02;;;;;;;7.65;6.00;;;11.10;80.20;;;;;;5073553;28;20277;-64
2021/10/16 01:45:32;;;;;;;7.57;5.40;;;11.10;80.40;;;;;;5073282;28;20229;-64
2021/10/16 01:48:04;;;;;;;5.35;4.85;;;11.00;79.90;;;;;;5073104;28;20289;-63
2021/10/16 01:50:38;;;;;;;7.95;5.90;;;11.00;79.90;;;;;;5073234;28;20217;-63
2021/10/16 01:53:09;;;;;;;6.88;5.65;;;10.90;79.80;;;;;;5073314;28;20217;-63
2021/10/16 01:55:37;;;;;;;6.32;5.65;;;10.90;79.50;;;;;;5073295;28;20193;-63
2021/10/16 01:58:05;;;;;;;9.52;5.15;;;10.80;79.00;;;;;;5073015;28;20284;-63
2021/10/16 02:00:34;;;;;;;6.28;4.88;;;10.70;79.40;;;;;;5073277;28;20284;-63
2021/10/16 02:03:01;;;;;;;10.23;5.82;;;10.70;79.80;;;;;;5072581;28;20232;-63
2021/10/16 02:05:28;;;;;;;5.97;4.85;;;10.60;79.30;;;;;;5072909;28;20230;-63
2021/10/16 02:07:57;;;;;;;9.02;4.90;;;10.50;79.10;;;;;;5072657;28;20707;-63
2021/10/16 02:10:26;;;;;;;7.55;5.30;;;10.40;79.80;;;;;;5072794;28;20236;-63
2021/10/16 02:12:57;;;;;;;7.15;5.10;;;10.30;80.00;;;;;;5073116;28;20256;-63
2021/10/16 02:15:24;;;;;;;8.00;5.97;;;10.30;80.40;;;;;;5072901;28;20277;-63
2021/10/16 02:17:51;;;;;;;5.90;4.70;;;10.30;81.70;;;;;;5072678;28;20233;-63
2021/10/16 02:20:18;;;;;;;9.32;5.45;;;10.20;82.20;;;;;;5072027;28;20280;-63
2021/10/16 02:22:49;;;;;;;7.53;4.68;;;10.20;82.00;;;;;;5072805;28;20233;-63
2021/10/16 02:25:16;;;;;;;5.10;4.60;;;10.10;82.60;;;;;;5072241;28;20276;-63
2021/10/16 02:27:43;;;;;;;7.28;5.22;;;10.10;83.00;;;;;;5072901;28;20285;-64
2021/10/16 02:30:12;;;;;;;23.25;13.55;;;10.10;83.40;;;;;;5072685;28;20285;-64
2021/10/16 02:32:41;;;;;;;10.25;7.45;;;10.10;83.30;;;;;;5072838;28;20193;-64
2021/10/16 02:35:08;;;;;;;7.75;5.05;;;10.10;83.50;;;;;;5072630;28;20284;-64
2021/10/16 02:37:35;;;;;;;5.05;3.97;;;10.10;83.70;;;;;;5072547;28;20193;-64
2021/10/16 02:40:03;;;;;;;5.13;4.10;;;10.10;84.10;;;;;;5072727;28;20231;-64
2021/10/16 02:42:30;;;;;;;7.20;4.57;;;10.20;84.30;;;;;;5072317;28;20232;-65
2021/10/16 02:44:57;;;;;;;5.55;4.15;;;10.10;82.70;;;;;;5072259;28;20280;-64
2021/10/16 02:47:27;;;;;;;4.95;4.05;;;10.10;83.20;;;;;;5072705;28;20190;-64
2021/10/16 02:49:54;;;;;;;6.63;5.00;;;10.10;84.00;;;;;;5072319;28;20602;-64
2021/10/16 02:52:21;;;;;;;6.50;4.88;;;10.00;83.80;;;;;;5072443;28;20280;-64
2021/10/16 02:54:53;;;;;;;5.45;3.95;;;10.00;84.30;;;;;;5071793;28;20740;-64
2021/10/16 02:57:20;;;;;;;7.03;5.18;;;9.90;85.80;;;;;;5072261;28;20708;-64
2021/10/16 02:59:47;;;;;;;5.70;4.68;;;9.90;85.90;;;;;;5072428;28;20276;-65
2021/10/16 03:02:15;;;;;;;7.47;5.88;;;9.90;86.60;;;;;;5072279;28;20225;-64
2021/10/16 03:04:48;;;;;;;9.43;5.97;;;9.90;85.90;;;;;;5071960;28;20280;-64
2021/10/16 03:07:16;;;;;;;5.15;4.60;;;9.90;85.90;;;;;;5072374;28;20193;-64
2021/10/16 03:09:48;;;;;;;6.65;5.00;;;9.90;86.30;;;;;;5071926;28;20308;-64
2021/10/16 03:12:15;;;;;;;5.72;4.35;;;9.80;86.00;;;;;;5072446;28;20308;-64
2021/10/16 03:14:42;;;;;;;5.68;3.78;;;9.80;86.30;;;;;;5072252;28;20272;-64
2021/10/16 03:17:09;;;;;;;7.47;5.18;;;9.70;86.50;;;;;;5072166;28;20240;-64
2021/10/16 03:19:36;;;;;;;7.60;4.78;;;9.60;86.20;;;;;;5072141;28;20281;-64
2021/10/16 03:22:04;;;;;;;6.10;4.38;;;9.60;86.40;;;;;;5072275;28;20276;-63
2021/10/16 03:24:34;;;;;;;7.35;5.85;;;9.60;86.30;;;;;;5072281;28;20221;-63
2021/10/16 03:27:01;;;;;;;6.13;4.75;;;9.60;86.00;;;;;;5072176;28;20280;-63
2021/10/16 03:29:28;;;;;;;7.35;4.70;;;9.50;85.70;;;;;;5072202;28;20232;-64
2021/10/16 03:31:55;;;;;;;6.03;3.83;;;9.50;85.80;;;;;;5075157;28;20767;-63
2021/10/16 03:34:22;;;;;;;8.15;4.72;;;9.40;85.80;;;;;;5075383;28;20189;-63
2021/10/16 03:36:49;;;;;;;6.78;5.43;;;9.40;85.60;;;;;;5075327;28;20232;-64
2021/10/16 03:39:19;;;;;;;7.15;6.45;;;9.30;85.20;;;;;;5075977;28;20277;-63
2021/10/16 03:41:46;;;;;;;6.43;5.35;;;9.30;85.10;;;;;;5075799;28;20276;-64
2021/10/16 03:44:13;;;;;;;6.85;5.60;;;9.20;85.20;;;;;;5075377;28;20229;-64
2021/10/16 03:46:41;;;;;;;7.85;6.30;;;9.20;85.70;;;;;;5075862;28;20285;-63
2021/10/16 03:49:09;;;;;;;6.82;4.43;;;9.20;85.80;;;;;;5075578;28;20232;-63
2021/10/16 03:51:38;;;;;;;9.07;4.95;;;9.20;85.60;;;;;;5075465;28;20312;-63
2021/10/16 03:54:05;;;;;;;7.43;5.25;;;9.20;85.40;;;;;;5075667;28;20272;-63
2021/10/16 03:56:34;;;;;;;13.15;6.95;;;9.10;85.70;;;;;;5075629;28;20276;-63
2021/10/16 03:59:01;;;;;;;11.63;7.40;;;9.10;85.10;;;;;;5075452;28;20232;-63
2021/10/16 04:01:28;;;;;;;8.00;6.20;;;9.00;85.20;;;;;;5075472;28;20277;-63
2021/10/16 04:03:55;;;;;;;7.47;6.65;;;9.00;84.70;;;;;;5075447;28;20225;-63
2021/10/16 04:06:22;;;;;;;10.18;5.90;;;9.00;84.50;;;;;;5075465;28;20285;-63
2021/10/16 04:08:55;;;;;;;7.32;6.57;;;8.80;84.90;;;;;;5075334;28;20313;-63
2021/10/16 04:11:21;;;;;;;8.15;5.22;;;8.70;85.20;;;;;;5075250;28;20312;-63
2021/10/16 04:13:50;;;;;;;7.63;6.10;;;8.70;85.00;;;;;;5075183;28;20278;-63
2021/10/16 04:16:19;;;;;;;7.90;6.05;;;8.60;84.70;;;;;;5075382;28;20212;-63
2021/10/16 04:18:46;;;;;;;7.63;6.80;;;8.60;84.80;;;;;;5075025;28;20194;-63
2021/10/16 04:21:13;;;;;;;6.43;5.80;;;8.60;84.70;;;;;;5075044;28;20288;-64
2021/10/16 04:23:40;;;;;;;6.70;6.00;;;8.50;83.30;;;;;;5074913;28;20747;-64
2021/10/16 04:26:07;;;;;;;6.25;5.65;;;8.50;83.50;;;;;;5075195;28;20193;-63
2021/10/16 04:28:34;;;;;;;12.35;6.55;;;8.50;83.50;;;;;;5075070;28;20697;-64
2021/10/16 04:31:02;;;;;;;7.43;5.88;;;8.40;84.10;;;;;;5075010;28;20221;-63
2021/10/16 04:33:33;;;;;;;6.65;5.57;;;8.40;84.50;;;;;;5074809;28;20614;-63
2021/10/16 04:36:03;;;;;;;6.72;5.20;;;8.40;84.10;;;;;;5075342;28;20221;-63
2021/10/16 04:38:30;;;;;;;6.03;5.43;;;8.30;84.20;;;;;;5074971;28;20276;-63
2021/10/16 04:40:57;;;;;;;8.45;5.95;;;8.30;84.60;;;;;;5074924;28;20608;-63
2021/10/16 04:43:24;;;;;;;5.35;4.80;;;8.30;84.30;;;;;;5074049;28;20225;-63
2021/10/16 04:45:51;;;;;;;4.30;3.45;;;8.20;83.40;;;;;;5074612;28;20280;-63
2021/10/16 04:48:21;;;;;;;6.78;5.20;;;8.20;82.60;;;;;;5074553;28;20193;-63
2021/10/16 04:50:48;;;;;;;7.30;4.95;;;8.10;83.30;;;;;;5074681;28;20588;-63
2021/10/16 04:53:17;;;;;;;9.05;4.47;;;8.10;84.00;;;;;;5074621;28;20277;-63
2021/10/16 04:55:44;;;;;;;6.70;5.20;;;8.00;84.60;;;;;;5074497;28;20276;-63
2021/10/16 04:58:11;;;;;;;7.00;5.15;;;8.10;85.10;;;;;;5074392;28;20193;-63
2021/10/16 05:00:38;;;;;;;5.55;4.60;;;8.00;84.80;;;;;;5074162;28;20229;-64
2021/10/16 05:03:12;;;;;;;7.28;5.38;;;8.00;85.20;;;;;;5074088;28;20225;-66
2021/10/16 05:05:40;;;;;;;6.75;4.80;;;7.90;84.10;;;;;;5074210;28;20225;-63
2021/10/16 05:08:07;;;;;;;5.28;4.60;;;7.90;84.80;;;;;;5074035;28;20276;-63
2021/10/16 05:10:39;;;;;;;7.82;4.93;;;7.90;84.20;;;;;;5074049;28;20304;-64
2021/10/16 05:13:06;;;;;;;5.43;4.60;;;7.90;84.30;;;;;;5074165;28;20284;-63
2021/10/16 05:15:33;;;;;;;6.10;4.70;;;7.90;84.10;;;;;;5074246;28;20290;-63
2021/10/16 05:18:00;;;;;;;5.13;4.43;;;7.80;83.50;;;;;;5074176;28;20233;-63
2021/10/16 05:20:27;;;;;;;5.50;4.43;;;7.80;83.70;;;;;;5073967;28;20288;-63
2021/10/16 05:22:56;;;;;;;5.35;4.05;;;7.80;83.90;;;;;;5073871;28;20285;-64
2021/10/16 05:25:23;;;;;;;14.00;5.85;;;7.80;84.30;;;;;;5073937;28;20281;-64
2021/10/16 05:27:50;;;;;;;8.07;5.00;;;7.80;84.40;;;;;;5073660;28;20276;-63
2021/10/16 05:30:18;;;;;;;6.80;5.32;;;7.90;84.60;;;;;;5073852;28;20272;-63
2021/10/16 05:32:45;;;;;;;4.78;3.95;;;7.90;84.80;;;;;;5073487;28;20244;-63
2021/10/16 05:35:12;;;;;;;5.50;3.78;;;7.90;84.20;;;;;;5073371;28;20281;-64
2021/10/16 05:37:39;;;;;;;4.35;3.92;;;7.90;82.90;;;;;;5073749;28;20225;-65
2021/10/16 05:40:10;;;;;;;5.40;4.68;;;7.80;82.40;;;;;;5073586;28;20230;-63
2021/10/16 05:42:37;;;;;;;6.05;4.70;;;7.80;83.00;;;;;;5073398;28;20236;-63
2021/10/16 05:45:05;;;;;;;4.95;4.47;;;7.70;82.80;;;;;;5073808;28;20194;-64
2021/10/16 05:47:38;;;;;;;4.78;3.85;;;7.70;83.30;;;;;;5073488;28;20189;-63
2021/10/16 05:50:10;;;;;;;6.65;5.32;;;7.70;83.90;;;;;;5073539;28;20189;-63
2021/10/16 05:52:37;;;;;;;10.00;8.70;;;7.70;84.40;;;;;;5073241;28;20209;-63
2021/10/16 05:55:04;;;;;;;12.85;10.80;;;7.60;84.70;;;;;;5073642;28;20221;-63
2021/10/16 05:57:34;;;;;;;14.68;11.38;;;7.60;85.40;;;;;;5073406;28;20285;-63
2021/10/16 06:00:01;;;;;;;13.60;8.88;;;7.60;86.10;;;;;;5073362;28;20285;-63
2021/10/16 06:02:28;;;;;;;8.82;7.30;;;7.70;86.30;;;;;;5073283;28;20190;-63
2021/10/16 06:04:55;;;;;;;9.93;7.15;;;7.70;85.60;;;;;;5073068;28;20232;-63
2021/10/16 06:07:22;;;;;;;8.07;5.80;;;7.70;85.40;;;;;;5072642;28;20284;-63
2021/10/16 06:09:54;;;;;;;7.07;6.32;;;7.80;85.50;;;;;;5072972;28;20747;-63
2021/10/16 06:12:21;;;;;;;8.27;6.25;;;7.80;85.40;;;;;;5073121;28;20312;-63
2021/10/16 06:14:55;;;;;;;7.50;5.70;;;7.80;85.70;;;;;;5073155;28;20619;-63
2021/10/16 06:17:23;;;;;;;7.38;6.45;;;7.80;86.20;;;;;;5073179;28;20283;-63
2021/10/16 06:19:51;;;;;;;10.07;7.65;;;7.80;86.80;;;;;;5072811;28;20243;-64
2021/10/16 06:22:19;;;;;;;5.55;5.05;;;7.90;86.30;;;;;;5073073;28;20190;-63
2021/10/16 06:24:46;;;;;;;8.32;7.53;;;7.90;86.30;;;;;;5073300;28;20193;-63
2021/10/16 06:27:13;;;;;;;11.40;8.52;;;7.90;86.00;;;;;;5073201;28;20276;-63
2021/10/16 06:29:40;;;;;;;11.80;7.60;;;8.10;85.90;;;;;;5073064;28;20190;-63
2021/10/16 06:32:08;;;;;;;6.88;6.15;;;8.10;85.60;;;;;;5073021;28;20312;-63
2021/10/16 06:34:35;;;;;;;7.55;6.32;;;8.20;86.00;;;;;;5072622;28;20277;-63
2021/10/16 06:37:02;;;;;;;8.07;6.13;;;8.20;85.60;;;;;;5073011;28;20190;-63
2021/10/16 06:39:31;;;;;;;7.30;5.93;;;8.20;86.10;;;;;;5072833;28;20233;-63
2021/10/16 06:41:58;;;;;;;10.00;6.50;;;8.20;85.90;;;;;;5072781;28;20233;-63
2021/10/16 06:44:25;;;;;;;9.13;7.40;;;8.20;85.90;;;;;;5072818;28;20612;-63
2021/10/16 06:46:57;;;;;;;9.18;7.03;;;8.40;87.10;;;;;;5072696;28;20285;-63
2021/10/16 06:49:25;;;;;;;8.43;7.03;;;8.60;87.30;;;;;;5072450;28;20284;-63
2021/10/16 06:51:52;;;;;;;9.93;6.85;;;8.80;86.90;;;;;;5072565;28;20302;-64
2021/10/16 06:54:24;;;;;;;12.18;6.15;;;8.90;85.00;;;;;;5072746;28;20272;-63
2021/10/16 06:56:52;;;;;;;8.45;6.30;;;8.90;84.30;;;;;;5072562;28;20281;-63
2021/10/16 06:59:19;;;;;;;10.40;7.00;;;9.10;85.20;;;;;;5072640;28;20272;-63
2021/10/16 07:01:48;;;;;;;9.38;6.32;;;9.30;84.90;;;;;;5072493;28;20660;-64
2021/10/16 07:04:15;;;;;;;8.27;6.35;;;9.50;84.30;;;;;;5072771;28;20575;-63
2021/10/16 07:06:43;;;;;;;8.27;6.57;;;9.50;82.20;;;;;;5075458;28;20229;-64
2021/10/16 07:09:10;;;;;;;10.15;6.68;;;9.60;81.70;;;;;;5076211;28;20316;-64
2021/10/16 07:11:39;;;;;;;7.47;5.43;;;9.70;81.20;;;;;;5076465;28;20308;-63
2021/10/16 07:14:06;;;;;;;7.95;6.07;;;9.80;81.50;;;;;;5076374;28;20280;-64
2021/10/16 07:16:33;;;;;;;8.57;5.80;;;10.10;78.80;;;;;;5076507;28;20275;-64
2021/10/16 07:19:00;;;;;;;8.65;5.90;;;10.50;79.80;;;;;;5076301;28;20280;-63
2021/10/16 07:21:27;;;;;;;9.35;5.80;;;11.30;76.90;;;;;;5076464;28;20244;-63
2021/10/16 07:23:56;;;;;;;14.10;7.68;;;12.50;74.30;;;;;;5075906;28;20229;-63
2021/10/16 07:26:23;;;;;;;18.15;8.10;;;13.90;70.40;;;;;;5076182;28;20200;-63
2021/10/16 07:28:51;;;;;;;10.48;8.48;;;15.40;66.00;;;;;;5076103;28;20272;-63
2021/10/16 07:31:19;;;;;;;9.43;7.30;;;17.00;60.10;;;;;;5076244;28;20659;-64
2021/10/16 07:33:48;;;;;;;11.00;7.50;;;18.50;55.50;;;;;;5075778;28;20280;-64
2021/10/16 07:36:15;;;;;;;8.27;7.40;;;19.80;51.50;;;;;;5075731;28;20942;-64
2021/10/16 07:38:42;;;;;;;8.30;7.10;;;21.20;47.40;;;;;;5076033;28;20427;-64
2021/10/16 07:41:10;;;;;;;10.20;6.50;;;22.40;44.80;;;;;;5075982;28;20542;-62
2021/10/16 07:43:37;;;;;;;10.63;7.90;;;23.50;41.70;;;;;;5076075;28;20470;-64
2021/10/16 07:46:07;;;;;;;10.90;8.23;;;24.50;39.00;;;;;;5075616;28;20941;-65
2021/10/16 07:48:35;;;;;;;8.00;6.00;;;25.40;38.00;;;;;;5075812;28;20468;-64
2021/10/16 07:51:03;;;;;;;7.60;6.00;;;26.60;34.80;;;;;;5075786;28;20448;-64
2021/10/16 07:53:30;;;;;;;5.87;5.20;;;27.50;32.60;;;;;;5075463;28;20558;-64
2021/10/16 07:55:59;;;;;;;4.93;4.43;;;28.30;30.30;;;;;;5075737;28;20467;-64
2021/10/16 07:58:27;;;;;;;5.93;4.30;;;29.00;29.30;;;;;;5075285;28;20523;-65
2021/10/16 08:00:59;;;;;;;4.33;3.57;;;29.50;28.60;;;;;;5075413;28;20440;-64
2021/10/16 08:03:31;;;;;;;4.77;3.10;;;30.10;27.00;;;;;;5075490;28;20506;-64
2021/10/16 08:06:00;;;;;;;5.70;3.90;;;30.70;27.30;;;;;;5075742;28;20528;-64
2021/10/16 08:08:27;;;;;;;4.83;4.03;;;31.70;25.70;;;;;;5075255;28;20990;-65
2021/10/16 08:10:54;;;;;;;4.27;3.53;;;32.50;24.00;;;;;;5075075;28;20980;-65
2021/10/16 08:13:21;;;;;;;5.03;4.07;;;33.00;24.40;;;;;;5075086;28;20487;-64
2021/10/16 08:15:55;;;;;;;7.00;4.60;;;33.80;23.00;;;;;;5075268;28;20460;-64
2021/10/16 08:18:22;;;;;;;4.53;4.07;;;34.40;22.20;;;;;;5073893;28;20796;-62
2021/10/16 08:20:50;;;;;;;5.10;4.47;;;35.00;22.00;;;;;;5075313;28;20529;-64
2021/10/16 08:23:17;;;;;;;4.10;3.70;;;35.50;20.90;;;;;;5075180;28;20865;-65
2021/10/16 08:25:49;;;;;;;6.23;5.13;;;36.00;20.10;;;;;;5074843;28;20463;-65
2021/10/16 08:28:16;;;;;;;6.03;4.50;;;36.60;18.60;;;;;;5075316;28;20838;-64
2021/10/16 08:30:51;;;;;;;7.10;4.33;;;36.40;18.60;;;;;;5074985;28;20773;-65
2021/10/16 08:33:22;;;;;;;5.37;4.77;;;36.10;18.20;;;;;;5075076;28;20486;-64
2021/10/16 08:35:49;;;;;;;5.90;4.87;;;35.50;18.60;;;;;;5074873;28;20843;-64
2021/10/16 08:38:17;;;;;;;6.03;4.47;;;35.40;19.80;;;;;;5074626;28;20472;-65
2021/10/16 08:40:53;;;;;;;5.00;4.50;;;36.10;19.50;;;;;;5074329;28;20833;-65
2021/10/16 08:43:21;;;;;;;7.23;4.47;;;37.00;18.40;;;;;;5074428;28;20440;-65
2021/10/16 08:45:48;;;;;;;4.80;4.40;;;37.60;17.50;;;;;;5074454;28;20519;-64
2021/10/16 08:48:16;;;;;;;6.57;4.90;;;38.00;17.70;;;;;;5074617;28;20439;-65
2021/10/16 08:50:47;;;;;;;6.17;5.57;;;38.90;16.00;;;;;;5074530;28;20444;-65
2021/10/16 08:53:14;;;;;;;6.90;6.07;;;39.70;15.50;;;;;;5074296;28;20562;-64
2021/10/16 08:55:42;;;;;;;8.67;5.00;;;40.30;15.80;;;;;;5074353;28;20531;-65
2021/10/16 08:58:09;;;;;;;6.37;5.43;;;41.20;15.30;;;;;;5074377;28;20447;-65
2021/10/16 09:00:38;;;;;;;5.80;5.07;;;41.60;14.60;;;;;;5074334;28;20535;-65
2021/10/16 09:03:22;;;;;;;6.73;6.17;;;42.00;14.40;;;;;;5074421;28;20523;-65
2021/10/16 09:06:01;;;;;;;5.90;5.30;;;42.60;14.10;;;;;;5072919;28;20530;-64
2021/10/16 09:08:30;;;;;;;6.17;5.57;;;43.10;13.40;;;;;;5074057;28;20859;-66
2021/10/16 09:11:14;;;;;;;10.20;5.20;;;43.50;13.10;;;;;;5074396;28;20901;-64
2021/10/16 09:13:43;;;;;;;6.40;5.50;;;44.00;13.00;;;;;;5074075;28;20557;-66
2021/10/16 09:16:27;;;;;;;7.93;5.67;;;44.60;13.20;;;;;;5074252;28;20468;-66
2021/10/16 09:19:11;;;;;;;6.60;5.87;;;45.30;12.30;;;;;;5073889;28;20929;-65
2021/10/16 09:21:42;;;;;;;8.43;6.20;;;45.70;12.20;;;;;;5071657;28;20440;-65
2021/10/16 09:24:20;;;;;;;7.37;6.53;;;45.90;11.20;;;;;;5073768;28;20483;-65
2021/10/16 09:26:50;;;;;;;7.00;6.30;;;46.00;11.80;;;;;;5073920;28;20432;-65
2021/10/16 09:29:28;;;;;;;7.30;6.70;;;46.40;11.80;;;;;;5073607;28;20927;-65
2021/10/16 09:31:56;;;;;;;9.87;8.30;;;46.80;11.20;;;;;;5073724;28;20535;-65
2021/10/16 09:34:28;;;;;;;8.57;7.77;;;47.00;10.50;;;;;;5073966;28;20479;-64
2021/10/16 09:37:04;;;;;;;9.50;7.57;;;47.20;10.90;;;;;;5073966;28;20976;-65
2021/10/16 09:39:35;;;;;;;7.97;7.17;;;47.50;10.70;;;;;;5073587;28;20431;-65
2021/10/16 09:42:02;;;;;;;8.60;7.67;;;46.80;9.50;;;;;;5073213;28;20939;-64
2021/10/16 09:44:30;;;;;;;8.47;7.77;;;44.40;11.20;;;;;;5073581;28;20861;-65
2021/10/16 09:47:03;;;;;;;8.30;7.50;;;44.30;12.20;;;;;;5073628;28;20472;-64
2021/10/16 09:49:33;;;;;;;8.70;7.87;;;44.50;11.60;;;;;;5073473;28;20536;-64
2021/10/16 09:52:03;;;;;;;8.70;7.80;;;44.10;10.80;;;;;;5073446;28;20535;-65
2021/10/16 09:54:34;;;;;;;8.93;8.13;;;42.60;11.80;;;;;;5073170;28;20436;-64
2021/10/16 09:57:04;;;;;;;9.83;8.83;;;40.30;12.50;;;;;;5073386;28;20479;-64
2021/10/16 09:59:33;;;;;;;12.07;8.40;;;38.80;14.80;;;;;;5073455;28;20518;-64
2021/10/16 10:02:03;;;;;;;10.10;9.07;;;37.90;14.20;;;;;;5073427;28;20526;-64
2021/10/16 10:04:33;;;;;;;9.00;8.17;;;36.40;15.70;;;;;;5073253;28;20616;-64
2021/10/16 10:07:04;;;;;;;8.03;7.33;;;37.00;17.10;;;;;;5073093;28;20471;-65
2021/10/16 10:09:32;;;;;;;8.30;7.17;;;39.00;15.90;;;;;;5073034;28;20575;-65
2021/10/16 10:12:03;;;;;;;8.07;7.27;;;40.90;14.20;;;;;;5072913;28;20470;-64
2021/10/16 10:14:30;;;;;;;7.60;6.90;;;42.50;14.10;;;;;;5072955;28;20446;-65
2021/10/16 10:17:04;;;;;;;6.60;6.00;;;43.90;12.90;;;;;;5073094;28;20876;-64
2021/10/16 10:19:32;;;;;;;7.03;6.43;;;44.60;11.30;;;;;;5072607;28;21029;-63
2021/10/16 10:21:59;;;;;;;8.60;6.60;;;42.30;11.30;;;;;;5072788;28;20467;-63
2021/10/16 10:24:39;;;;;;;7.17;5.87;;;39.90;12.90;;;;;;5072683;28;20509;-63
2021/10/16 10:27:07;;;;;;;5.17;4.67;;;39.00;13.60;;;;;;5072982;28;20527;-64
2021/10/16 10:29:37;;;;;;;6.40;5.80;;;39.00;14.40;;;;;;5072804;28;20432;-64
2021/10/16 10:32:06;;;;;;;6.73;6.13;;;39.90;15.50;;;;;;5072980;28;20436;-65
2021/10/16 10:34:39;;;;;;;4.83;4.40;;;41.80;14.50;;;;;;5072628;28;20494;-64
2021/10/16 10:37:12;;;;;;;7.60;4.80;;;42.10;12.70;;;;;;5072880;28;20755;-64
2021/10/16 10:39:46;;;;;;;5.53;4.53;;;40.70;12.90;;;;;;5072747;28;20475;-64
2021/10/16 10:42:49;;;;;;;5.03;4.33;;;41.50;14.10;;;;;;5072561;28;20519;-64
2021/10/16 10:45:38;;;;;;;4.87;4.43;;;43.70;13.20;;;;;;5072407;28;20447;-64
2021/10/16 10:48:16;;;;;;;4.80;4.20;;;45.10;11.80;;;;;;5072876;28;20440;-64
2021/10/16 10:51:00;;;;;;;6.30;4.30;;;45.40;11.70;;;;;;5072698;28;20918;-65
2021/10/16 10:53:40;;;;;;;4.37;3.97;;;46.50;10.80;;;;;;5072770;28;20436;-64
2021/10/16 10:56:20;;;;;;;5.67;4.37;;;47.40;10.60;;;;;;5072704;28;20436;-65
2021/10/16 10:59:08;;;;;;;5.40;4.90;;;48.30;10.00;;;;;;5072760;28;20531;-64
2021/10/16 11:01:50;;;;;;;5.50;5.00;;;47.00;9.50;;;;;;5072708;28;20941;-64
2021/10/16 11:04:37;;;;;;;4.53;4.13;;;45.60;9.50;;;;;;5072602;28;20507;-64
2021/10/16 11:07:06;;;;;;;5.30;4.77;;;42.60;10.20;;;;;;5072607;28;20443;-64
2021/10/16 11:09:34;;;;;;;6.43;5.60;;;39.80;11.80;;;;;;5072426;28;20815;-63
2021/10/16 11:12:02;;;;;;;5.73;5.13;;;38.60;13.00;;;;;;5072631;28;20463;-63
2021/10/16 11:14:33;;;;;;;6.23;5.63;;;36.80;13.80;;;;;;5072641;28;20499;-63
2021/10/16 11:17:02;;;;;;;5.47;4.70;;;36.80;15.00;;;;;;5072498;28;20510;-63
2021/10/16 11:19:29;;;;;;;6.00;4.90;;;35.70;14.90;;;;;;5072237;28;20915;-62
2021/10/16 11:21:58;;;;;;;4.83;4.23;;;33.90;15.80;;;;;;5072285;28;20436;-63
2021/10/16 11:24:26;;;;;;;4.87;4.23;;;32.50;17.20;;;;;;5072270;28;20519;-63
2021/10/16 11:26:54;;;;;;;4.70;4.30;;;33.30;19.60;;;;;;5072454;28;20523;-62
2021/10/16 11:29:33;;;;;;;4.60;3.90;;;36.20;18.00;;;;;;5072347;28;20468;-64
2021/10/16 11:32:19;;;;;;;4.70;3.20;;;38.60;14.50;;;;;;5072358;28;20526;-63
2021/10/16 11:35:01;;;;;;;4.00;3.30;;;37.80;15.10;;;;;;5072050;28;20515;-64
2021/10/16 11:37:39;;;;;;;4.73;3.77;;;39.50;14.90;;;;;;5072471;28;20468;-63
2021/10/16 11:40:10;;;;;;;3.73;2.97;;;41.50;14.00;;;;;;5072335;28;20479;-65
2021/10/16 11:42:38;;;;;;;3.77;3.37;;;43.30;12.90;;;;;;5072390;28;20448;-64
2021/10/16 11:45:12;;;;;;;3.70;2.73;;;44.90;11.80;;;;;;5072006;28;20467;-65
2021/10/16 11:47:41;;;;;;;4.20;3.07;;;45.80;10.60;;;;;;5072249;28;20466;-64
2021/10/16 11:50:14;;;;;;;5.20;3.50;;;46.30;9.50;;;;;;5072255;28;20432;-64
2021/10/16 11:52:42;;;;;;;4.43;4.03;;;44.50;9.90;;;;;;5074427;28;21005;-64
2021/10/16 11:55:18;;;;;;;4.47;4.00;;;42.40;10.40;;;;;;5075479;28;20428;-64
2021/10/16 11:57:51;;;;;;;5.60;4.10;;;39.90;12.40;;;;;;5075553;28;20427;-63
2021/10/16 12:00:25;;;;;;;5.90;3.70;;;39.90;13.00;;;;;;5075638;28;20519;-63
2021/10/16 12:02:53;;;;;;;9.10;6.00;;;41.00;12.80;;;;;;5075597;28;20436;-64
2021/10/16 12:05:21;;;;;;;6.50;5.90;;;40.10;13.80;;;;;;5075651;28;20518;-63
2021/10/16 12:07:49;;;;;;;5.60;4.67;;;40.40;14.50;;;;;;5075636;28;20514;-64
2021/10/16 12:10:28;;;;;;;4.90;3.80;;;41.50;13.00;;;;;;5074932;28;20547;-63
2021/10/16 12:13:02;;;;;;;4.93;3.00;;;42.50;13.00;;;;;;5075460;28;20435;-69
2021/10/16 12:15:50;;;;;;;4.20;3.33;;;43.40;12.10;;;;;;5075363;28;20450;-64
2021/10/16 12:18:22;;;;;;;5.13;4.17;;;43.50;10.80;;;;;;5075330;28;20522;-64
2021/10/16 12:20:56;;;;;;;3.87;3.47;;;44.20;11.20;;;;;;5075379;28;20523;-64
2021/10/16 12:23:25;;;;;;;3.43;3.03;;;44.70;11.20;;;;;;5075193;28;20507;-64
2021/10/16 12:25:54;;;;;;;4.97;3.80;;;45.10;10.90;;;;;;5075205;28;20471;-64
2021/10/16 12:28:27;;;;;;;4.90;3.90;;;45.00;10.70;;;;;;5075188;28;20475;-64
2021/10/16 12:31:04;;;;;;;4.50;3.73;;;44.70;10.30;;;;;;5075135;28;20471;-64
2021/10/16 12:33:32;;;;;;;4.10;3.23;;;44.50;9.90;;;;;;5075159;28;20439;-64
2021/10/16 12:36:01;;;;;;;4.10;3.47;;;44.30;10.80;;;;;;5074857;28;20494;-64
2021/10/16 12:38:29;;;;;;;4.73;3.60;;;42.40;10.60;;;;;;5074862;28;20535;-63
2021/10/16 12:40:57;;;;;;;3.77;3.37;;;40.50;11.90;;;;;;5074766;28;21000;-64
2021/10/16 12:43:27;;;;;;;5.93;3.97;;;40.50;12.60;;;;;;5074600;28;20579;-63
2021/10/16 12:45:55;;;;;;;3.90;3.43;;;40.50;13.20;;;;;;5074734;28;20436;-64
2021/10/16 12:48:28;;;;;;;4.73;3.60;;;40.50;12.70;;;;;;5074546;28;21013;-63
2021/10/16 12:50:57;;;;;;;7.07;4.10;;;39.10;12.50;;;;;;5074893;28;20468;-63
2021/10/16 12:53:25;;;;;;;3.90;3.30;;;36.80;13.80;;;;;;5074806;28;20439;-63
2021/10/16 12:55:52;;;;;;;4.50;3.57;;;34.90;14.90;;;;;;5074651;28;20530;-63
2021/10/16 12:58:19;;;;;;;3.93;3.30;;;33.00;16.30;;;;;;5074670;28;20514;-63
2021/10/16 13:00:49;;;;;;;4.43;3.70;;;31.30;17.80;;;;;;5074581;28;20467;-63
2021/10/16 13:03:18;;;;;;;4.30;3.30;;;29.70;18.90;;;;;;5073746;28;20432;-62